Kolyvan, Russia
Current Conditions -  °F | °C
As of 11:00 PM on Sunday 21 Dec 2014 (Local Time) from UNNT Reporting Station
Overcast Overcast  
Wind Chill: 13°   Ceiling: 1800
Heat Index: 23°   Visibility: 6mi
Dew Point: 19°   Wind: 9mph
Humidity: 86%   Direction: 190°S
Pressure: 30.15"   Gusts: NA
Location:  55.31°N, 82.74°E
Report Text: UNNT 211600Z 19004MPS 9999 SCT007 OVC018 M05/M07 Q1021 2539014016390140 NOSIG RMK QFE756/1008
Loading
Personal Weather Stations






























Interactive Weather Map New forecast layout! Learn more

10-Day Weather Forecast

Advertisements
Track Severe Weather on mobile